sensor_id;sensor_type;location;lat;lon;timestamp;temperature;humidity
1391;DHT22;690;51.454;7.194;2022-09-01T00:00:46;19.70;99.90
1391;DHT22;690;51.454;7.194;2022-09-01T00:03:14;19.70;99.90
1391;DHT22;690;51.454;7.194;2022-09-01T00:05:42;19.70;99.90
1391;DHT22;690;51.454;7.194;2022-09-01T00:08:09;19.60;99.90
1391;DHT22;690;51.454;7.194;2022-09-01T00:10:36;19.60;99.90
1391;DHT22;690;51.454;7.194;2022-09-01T00:13:04;19.60;99.90
1391;DHT22;690;51.454;7.194;2022-09-01T00:15:31;19.60;99.90
1391;DHT22;690;51.454;7.194;2022-09-01T00:17:58;19.60;99.90
1391;DHT22;690;51.454;7.194;2022-09-01T00:20:25;19.50;99.90
1391;DHT22;690;51.454;7.194;2022-09-01T00:22:54;19.50;99.90
1391;DHT22;690;51.454;7.194;2022-09-01T00:25:22;19.50;99.90
1391;DHT22;690;51.454;7.194;2022-09-01T00:27:50;19.50;99.90
1391;DHT22;690;51.454;7.194;2022-09-01T00:30:17;19.50;99.90
1391;DHT22;690;51.454;7.194;2022-09-01T00:32:44;19.50;99.90
1391;DHT22;690;51.454;7.194;2022-09-01T00:35:12;19.40;99.90
1391;DHT22;690;51.454;7.194;2022-09-01T00:37:38;19.40;99.90
1391;DHT22;690;51.454;7.194;2022-09-01T00:40:09;19.40;99.90
1391;DHT22;690;51.454;7.194;2022-09-01T00:42:36;19.30;99.90
1391;DHT22;690;51.454;7.194;2022-09-01T00:45:05;19.30;99.90
1391;DHT22;690;51.454;7.194;2022-09-01T00:47:32;19.20;99.90
1391;DHT22;690;51.454;7.194;2022-09-01T00:50:02;19.20;99.90
1391;DHT22;690;51.454;7.194;2022-09-01T00:52:33;19.10;99.90
1391;DHT22;690;51.454;7.194;2022-09-01T00:55:06;19.10;99.90
1391;DHT22;690;51.454;7.194;2022-09-01T00:57:35;19.00;99.90
1391;DHT22;690;51.454;7.194;2022-09-01T01:00:08;19.00;99.90
1391;DHT22;690;51.454;7.194;2022-09-01T01:02:36;18.90;99.90
1391;DHT22;690;51.454;7.194;2022-09-01T01:05:04;18.90;99.90
1391;DHT22;690;51.454;7.194;2022-09-01T01:07:32;18.80;99.90
1391;DHT22;690;51.454;7.194;2022-09-01T01:10:02;18.80;99.90
1391;DHT22;690;51.454;7.194;2022-09-01T01:12:29;18.80;99.90
1391;DHT22;690;51.454;7.194;2022-09-01T01:14:59;18.70;99.90
1391;DHT22;690;51.454;7.194;2022-09-01T01:17:28;18.70;99.90
1391;DHT22;690;51.454;7.194;2022-09-01T01:19:55;18.60;99.90
1391;DHT22;690;51.454;7.194;2022-09-01T01:22:47;18.60;99.90
1391;DHT22;690;51.454;7.194;2022-09-01T01:25:33;18.60;99.90
1391;DHT22;690;51.454;7.194;2022-09-01T01:28:11;18.50;99.90
1391;DHT22;690;51.454;7.194;2022-09-01T01:30:41;18.40;99.90
1391;DHT22;690;51.454;7.194;2022-09-01T01:33:09;18.30;99.90
1391;DHT22;690;51.454;7.194;2022-09-01T01:35:36;18.20;99.90
1391;DHT22;690;51.454;7.194;2022-09-01T01:38:04;18.20;99.90
1391;DHT22;690;51.454;7.194;2022-09-01T01:40:35;18.10;99.90
1391;DHT22;690;51.454;7.194;2022-09-01T01:43:04;18.10;99.90
1391;DHT22;690;51.454;7.194;2022-09-01T01:45:31;18.10;99.90
1391;DHT22;690;51.454;7.194;2022-09-01T01:47:58;18.00;99.90
1391;DHT22;690;51.454;7.194;2022-09-01T01:50:34;18.00;99.90
1391;DHT22;690;51.454;7.194;2022-09-01T01:53:02;18.00;99.90
1391;DHT22;690;51.454;7.194;2022-09-01T01:55:29;17.90;99.90
1391;DHT22;690;51.454;7.194;2022-09-01T01:57:58;17.90;99.90
1391;DHT22;690;51.454;7.194;2022-09-01T02:00:27;17.80;99.90
1391;DHT22;690;51.454;7.194;2022-09-01T02:02:54;17.80;99.90
1391;DHT22;690;51.454;7.194;2022-09-01T02:05:23;17.70;99.90
1391;DHT22;690;51.454;7.194;2022-09-01T02:07:52;17.70;99.90
1391;DHT22;690;51.454;7.194;2022-09-01T02:10:23;17.70;99.90
1391;DHT22;690;51.454;7.194;2022-09-01T02:12:50;17.60;99.90
1391;DHT22;690;51.454;7.194;2022-09-01T02:15:18;17.60;99.90
1391;DHT22;690;51.454;7.194;2022-09-01T02:17:45;17.60;99.90
1391;DHT22;690;51.454;7.194;2022-09-01T02:20:14;17.50;99.90
1391;DHT22;690;51.454;7.194;2022-09-01T02:22:42;17.50;99.90
1391;DHT22;690;51.454;7.194;2022-09-01T02:25:11;17.50;99.90
1391;DHT22;690;51.454;7.194;2022-09-01T02:27:41;17.40;99.90
1391;DHT22;690;51.454;7.194;2022-09-01T02:30:09;17.40;99.90
1391;DHT22;690;51.454;7.194;2022-09-01T02:32:39;17.40;99.90
1391;DHT22;690;51.454;7.194;2022-09-01T02:35:07;17.30;99.90
1391;DHT22;690;51.454;7.194;2022-09-01T02:37:37;17.30;99.90
1391;DHT22;690;51.454;7.194;2022-09-01T02:40:07;17.20;99.90
1391;DHT22;690;51.454;7.194;2022-09-01T02:42:37;17.20;99.90
1391;DHT22;690;51.454;7.194;2022-09-01T02:45:08;17.20;99.90
1391;DHT22;690;51.454;7.194;2022-09-01T02:47:43;17.10;99.90
1391;DHT22;690;51.454;7.194;2022-09-01T02:50:12;17.10;99.90
1391;DHT22;690;51.454;7.194;2022-09-01T02:52:42;17.10;99.90
1391;DHT22;690;51.454;7.194;2022-09-01T02:55:09;17.10;99.90
1391;DHT22;690;51.454;7.194;2022-09-01T02:57:37;17.00;99.90
1391;DHT22;690;51.454;7.194;2022-09-01T03:00:07;17.00;99.90
1391;DHT22;690;51.454;7.194;2022-09-01T03:02:49;17.00;99.90
1391;DHT22;690;51.454;7.194;2022-09-01T03:05:18;17.00;99.90
1391;DHT22;690;51.454;7.194;2022-09-01T03:07:50;16.90;99.90
1391;DHT22;690;51.454;7.194;2022-09-01T03:10:22;16.90;99.90
1391;DHT22;690;51.454;7.194;2022-09-01T03:12:52;16.90;99.90
1391;DHT22;690;51.454;7.194;2022-09-01T03:15:19;16.80;99.90
1391;DHT22;690;51.454;7.194;2022-09-01T03:17:49;16.80;99.90
1391;DHT22;690;51.454;7.194;2022-09-01T03:20:17;16.70;99.90
1391;DHT22;690;51.454;7.194;2022-09-01T03:22:46;16.70;99.90
1391;DHT22;690;51.454;7.194;2022-09-01T03:25:14;16.70;99.90
1391;DHT22;690;51.454;7.194;2022-09-01T03:27:41;16.60;99.90
1391;DHT22;690;51.454;7.194;2022-09-01T03:30:09;16.60;99.90
1391;DHT22;690;51.454;7.194;2022-09-01T03:32:36;16.60;99.90
1391;DHT22;690;51.454;7.194;2022-09-01T03:35:05;16.60;99.90
1391;DHT22;690;51.454;7.194;2022-09-01T03:37:33;16.60;99.90
1391;DHT22;690;51.454;7.194;2022-09-01T03:40:02;16.50;99.90
1391;DHT22;690;51.454;7.194;2022-09-01T03:42:30;16.50;99.90
1391;DHT22;690;51.454;7.194;2022-09-01T03:44:57;16.50;99.90
1391;DHT22;690;51.454;7.194;2022-09-01T03:47:24;16.50;99.90
1391;DHT22;690;51.454;7.194;2022-09-01T03:49:51;16.50;99.90
1391;DHT22;690;51.454;7.194;2022-09-01T03:52:20;16.50;99.90
1391;DHT22;690;51.454;7.194;2022-09-01T03:54:54;16.50;99.90
1391;DHT22;690;51.454;7.194;2022-09-01T03:57:24;16.40;99.90
1391;DHT22;690;51.454;7.194;2022-09-01T03:59:52;16.40;99.90
1391;DHT22;690;51.454;7.194;2022-09-01T04:02:19;16.40;99.90
1391;DHT22;690;51.454;7.194;2022-09-01T04:04:47;16.30;99.90
1391;DHT22;690;51.454;7.194;2022-09-01T04:07:14;16.30;99.90
1391;DHT22;690;51.454;7.194;2022-09-01T04:09:42;16.20;99.90
1391;DHT22;690;51.454;7.194;2022-09-01T04:12:09;16.20;99.90
1391;DHT22;690;51.454;7.194;2022-09-01T04:14:40;16.10;99.90
1391;DHT22;690;51.454;7.194;2022-09-01T04:17:07;16.10;99.90
1391;DHT22;690;51.454;7.194;2022-09-01T04:19:51;16.10;99.90
1391;DHT22;690;51.454;7.194;2022-09-01T04:22:18;16.10;99.90
1391;DHT22;690;51.454;7.194;2022-09-01T04:24:46;16.10;99.90
1391;DHT22;690;51.454;7.194;2022-09-01T04:27:14;16.10;99.90
1391;DHT22;690;51.454;7.194;2022-09-01T04:29:43;16.10;99.90
1391;DHT22;690;51.454;7.194;2022-09-01T04:32:11;16.10;99.90
1391;DHT22;690;51.454;7.194;2022-09-01T04:34:40;16.10;99.90
1391;DHT22;690;51.454;7.194;2022-09-01T04:37:09;16.10;99.90
1391;DHT22;690;51.454;7.194;2022-09-01T04:39:37;16.10;99.90
1391;DHT22;690;51.454;7.194;2022-09-01T04:42:06;16.10;99.90
1391;DHT22;690;51.454;7.194;2022-09-01T04:44:34;16.10;99.90
1391;DHT22;690;51.454;7.194;2022-09-01T04:47:01;16.10;99.90
1391;DHT22;690;51.454;7.194;2022-09-01T04:49:30;16.10;99.90
1391;DHT22;690;51.454;7.194;2022-09-01T04:51:58;16.10;99.90
1391;DHT22;690;51.454;7.194;2022-09-01T04:54:25;16.10;99.90
1391;DHT22;690;51.454;7.194;2022-09-01T04:56:52;16.10;99.90
1391;DHT22;690;51.454;7.194;2022-09-01T04:59:22;16.10;99.90
1391;DHT22;690;51.454;7.194;2022-09-01T05:01:52;16.10;99.90
1391;DHT22;690;51.454;7.194;2022-09-01T05:04:24;16.10;99.90
1391;DHT22;690;51.454;7.194;2022-09-01T05:06:54;16.20;99.90
1391;DHT22;690;51.454;7.194;2022-09-01T05:09:22;16.20;99.90
1391;DHT22;690;51.454;7.194;2022-09-01T05:11:50;16.20;99.90
1391;DHT22;690;51.454;7.194;2022-09-01T05:14:18;16.30;99.90
1391;DHT22;690;51.454;7.194;2022-09-01T05:16:46;16.30;99.90
1391;DHT22;690;51.454;7.194;2022-09-01T05:19:15;16.30;99.90
1391;DHT22;690;51.454;7.194;2022-09-01T05:21:43;16.30;99.90
1391;DHT22;690;51.454;7.194;2022-09-01T05:24:11;16.30;99.90
1391;DHT22;690;51.454;7.194;2022-09-01T05:26:40;16.30;99.90
1391;DHT22;690;51.454;7.194;2022-09-01T05:29:09;16.40;99.90
1391;DHT22;690;51.454;7.194;2022-09-01T05:31:38;16.40;99.90
1391;DHT22;690;51.454;7.194;2022-09-01T05:34:07;16.40;99.90
1391;DHT22;690;51.454;7.194;2022-09-01T05:36:36;16.40;99.90
1391;DHT22;690;51.454;7.194;2022-09-01T05:39:05;16.40;99.90
1391;DHT22;690;51.454;7.194;2022-09-01T05:41:32;16.40;99.90
1391;DHT22;690;51.454;7.194;2022-09-01T05:44:01;16.50;99.90
1391;DHT22;690;51.454;7.194;2022-09-01T05:46:31;16.50;99.90
1391;DHT22;690;51.454;7.194;2022-09-01T05:48:58;16.50;99.90
1391;DHT22;690;51.454;7.194;2022-09-01T05:51:28;16.50;99.90
1391;DHT22;690;51.454;7.194;2022-09-01T05:53:59;16.50;99.90
1391;DHT22;690;51.454;7.194;2022-09-01T05:56:27;16.60;99.90
1391;DHT22;690;51.454;7.194;2022-09-01T05:58:55;16.60;99.90
1391;DHT22;690;51.454;7.194;2022-09-01T06:01:26;16.70;99.90
1391;DHT22;690;51.454;7.194;2022-09-01T06:03:55;16.70;99.90
1391;DHT22;690;51.454;7.194;2022-09-01T06:06:24;16.70;99.90
1391;DHT22;690;51.454;7.194;2022-09-01T06:08:53;16.70;99.90
1391;DHT22;690;51.454;7.194;2022-09-01T06:11:24;16.80;99.90
1391;DHT22;690;51.454;7.194;2022-09-01T06:13:53;16.90;99.90
1391;DHT22;690;51.454;7.194;2022-09-01T06:16:23;16.90;99.90
1391;DHT22;690;51.454;7.194;2022-09-01T06:18:50;17.00;99.90
1391;DHT22;690;51.454;7.194;2022-09-01T06:21:19;17.00;99.90
1391;DHT22;690;51.454;7.194;2022-09-01T06:23:50;17.00;99.90
1391;DHT22;690;51.454;7.194;2022-09-01T06:26:21;17.10;99.90
1391;DHT22;690;51.454;7.194;2022-09-01T06:28:52;17.10;99.90
1391;DHT22;690;51.454;7.194;2022-09-01T06:31:19;17.20;99.90
1391;DHT22;690;51.454;7.194;2022-09-01T06:33:48;17.30;99.90
1391;DHT22;690;51.454;7.194;2022-09-01T06:36:19;17.30;99.90
1391;DHT22;690;51.454;7.194;2022-09-01T06:38:47;17.50;99.90
1391;DHT22;690;51.454;7.194;2022-09-01T06:41:14;17.80;99.90
1391;DHT22;690;51.454;7.194;2022-09-01T06:43:45;17.90;99.90
1391;DHT22;690;51.454;7.194;2022-09-01T06:46:14;17.90;99.90
1391;DHT22;690;51.454;7.194;2022-09-01T06:48:42;17.90;99.90
1391;DHT22;690;51.454;7.194;2022-09-01T06:51:12;17.90;99.90
1391;DHT22;690;51.454;7.194;2022-09-01T06:53:40;17.90;99.90
1391;DHT22;690;51.454;7.194;2022-09-01T06:56:08;18.00;99.90
1391;DHT22;690;51.454;7.194;2022-09-01T06:58:38;18.00;99.90
1391;DHT22;690;51.454;7.194;2022-09-01T07:01:09;18.00;99.90
1391;DHT22;690;51.454;7.194;2022-09-01T07:03:41;18.10;99.90
1391;DHT22;690;51.454;7.194;2022-09-01T07:06:09;18.20;99.90
1391;DHT22;690;51.454;7.194;2022-09-01T07:08:37;18.30;99.90
1391;DHT22;690;51.454;7.194;2022-09-01T07:11:07;18.40;99.90
1391;DHT22;690;51.454;7.194;2022-09-01T07:13:35;18.40;99.90
1391;DHT22;690;51.454;7.194;2022-09-01T07:16:02;18.40;99.90
1391;DHT22;690;51.454;7.194;2022-09-01T07:18:32;18.50;99.90
1391;DHT22;690;51.454;7.194;2022-09-01T07:21:00;18.60;99.90
1391;DHT22;690;51.454;7.194;2022-09-01T07:23:32;18.70;99.90
1391;DHT22;690;51.454;7.194;2022-09-01T07:25:59;18.90;99.90
1391;DHT22;690;51.454;7.194;2022-09-01T07:28:26;18.90;99.90
1391;DHT22;690;51.454;7.194;2022-09-01T07:30:57;18.90;99.90
1391;DHT22;690;51.454;7.194;2022-09-01T07:33:25;19.10;99.90
1391;DHT22;690;51.454;7.194;2022-09-01T07:35:53;19.20;99.90
1391;DHT22;690;51.454;7.194;2022-09-01T07:38:22;19.20;99.90
1391;DHT22;690;51.454;7.194;2022-09-01T07:40:49;19.40;99.90
1391;DHT22;690;51.454;7.194;2022-09-01T07:43:18;19.50;99.90
1391;DHT22;690;51.454;7.194;2022-09-01T07:45:48;19.50;99.90
1391;DHT22;690;51.454;7.194;2022-09-01T07:48:16;19.60;99.90
1391;DHT22;690;51.454;7.194;2022-09-01T07:50:46;19.70;99.90
1391;DHT22;690;51.454;7.194;2022-09-01T07:53:16;19.80;99.90
1391;DHT22;690;51.454;7.194;2022-09-01T07:55:43;19.90;99.90
1391;DHT22;690;51.454;7.194;2022-09-01T07:58:11;20.00;99.90
1391;DHT22;690;51.454;7.194;2022-09-01T08:00:38;20.10;99.90
1391;DHT22;690;51.454;7.194;2022-09-01T08:03:06;20.20;99.90
1391;DHT22;690;51.454;7.194;2022-09-01T08:05:33;20.30;99.90
1391;DHT22;690;51.454;7.194;2022-09-01T08:08:00;20.40;99.90
1391;DHT22;690;51.454;7.194;2022-09-01T08:10:28;20.50;99.90
1391;DHT22;690;51.454;7.194;2022-09-01T08:12:55;20.60;99.90
1391;DHT22;690;51.454;7.194;2022-09-01T08:15:23;20.70;99.90
1391;DHT22;690;51.454;7.194;2022-09-01T08:17:50;20.70;99.90
1391;DHT22;690;51.454;7.194;2022-09-01T08:20:17;20.80;99.90
1391;DHT22;690;51.454;7.194;2022-09-01T08:22:44;20.90;99.90
1391;DHT22;690;51.454;7.194;2022-09-01T08:25:11;21.00;99.90
1391;DHT22;690;51.454;7.194;2022-09-01T08:27:39;21.10;99.90
1391;DHT22;690;51.454;7.194;2022-09-01T08:30:08;21.20;99.90
1391;DHT22;690;51.454;7.194;2022-09-01T08:32:37;21.30;99.90
1391;DHT22;690;51.454;7.194;2022-09-01T08:35:08;21.40;99.90
1391;DHT22;690;51.454;7.194;2022-09-01T08:37:35;21.40;99.90
1391;DHT22;690;51.454;7.194;2022-09-01T08:40:02;21.50;99.90
1391;DHT22;690;51.454;7.194;2022-09-01T08:42:46;21.60;99.90
1391;DHT22;690;51.454;7.194;2022-09-01T08:45:20;21.60;99.90
1391;DHT22;690;51.454;7.194;2022-09-01T08:47:51;21.70;99.90
1391;DHT22;690;51.454;7.194;2022-09-01T08:50:19;21.80;99.90
1391;DHT22;690;51.454;7.194;2022-09-01T08:52:50;21.90;99.90
1391;DHT22;690;51.454;7.194;2022-09-01T08:55:25;21.90;99.90
1391;DHT22;690;51.454;7.194;2022-09-01T08:57:56;22.00;99.90
1391;DHT22;690;51.454;7.194;2022-09-01T09:00:25;22.10;99.90
1391;DHT22;690;51.454;7.194;2022-09-01T09:03:08;22.20;99.90
1391;DHT22;690;51.454;7.194;2022-09-01T09:05:53;22.20;99.90
1391;DHT22;690;51.454;7.194;2022-09-01T09:08:46;22.30;99.90
1391;DHT22;690;51.454;7.194;2022-09-01T09:14:24;22.40;99.90
1391;DHT22;690;51.454;7.194;2022-09-01T09:16:54;22.50;99.90
1391;DHT22;690;51.454;7.194;2022-09-01T09:19:24;22.60;99.90
1391;DHT22;690;51.454;7.194;2022-09-01T09:21:54;22.60;99.90
1391;DHT22;690;51.454;7.194;2022-09-01T09:24:26;22.70;99.90
1391;DHT22;690;51.454;7.194;2022-09-01T09:26:55;22.80;99.90
1391;DHT22;690;51.454;7.194;2022-09-01T09:29:25;22.90;99.90
1391;DHT22;690;51.454;7.194;2022-09-01T09:32:03;22.90;99.90
1391;DHT22;690;51.454;7.194;2022-09-01T09:34:32;23.00;99.90
1391;DHT22;690;51.454;7.194;2022-09-01T09:37:15;23.10;99.90
1391;DHT22;690;51.454;7.194;2022-09-01T09:39:43;23.10;99.90
1391;DHT22;690;51.454;7.194;2022-09-01T09:42:12;23.20;99.90
1391;DHT22;690;51.454;7.194;2022-09-01T09:44:44;23.30;99.90
1391;DHT22;690;51.454;7.194;2022-09-01T09:47:34;23.30;99.90
1391;DHT22;690;51.454;7.194;2022-09-01T09:50:12;23.40;99.90
1391;DHT22;690;51.454;7.194;2022-09-01T09:52:40;23.50;99.90
1391;DHT22;690;51.454;7.194;2022-09-01T09:55:20;23.60;99.90
1391;DHT22;690;51.454;7.194;2022-09-01T09:57:49;23.70;99.90
1391;DHT22;690;51.454;7.194;2022-09-01T10:00:21;23.70;99.90
1391;DHT22;690;51.454;7.194;2022-09-01T10:02:53;23.70;99.90
1391;DHT22;690;51.454;7.194;2022-09-01T10:05:27;23.70;99.90
1391;DHT22;690;51.454;7.194;2022-09-01T10:07:55;23.80;99.90
1391;DHT22;690;51.454;7.194;2022-09-01T10:10:29;23.90;99.90
1391;DHT22;690;51.454;7.194;2022-09-01T10:12:58;23.90;99.90
1391;DHT22;690;51.454;7.194;2022-09-01T10:15:29;24.00;99.90
1391;DHT22;690;51.454;7.194;2022-09-01T10:18:00;24.10;99.90
1391;DHT22;690;51.454;7.194;2022-09-01T10:20:30;24.10;99.90
1391;DHT22;690;51.454;7.194;2022-09-01T10:23:01;24.20;99.90
1391;DHT22;690;51.454;7.194;2022-09-01T10:25:30;24.20;99.90
1391;DHT22;690;51.454;7.194;2022-09-01T10:28:05;24.20;99.90
1391;DHT22;690;51.454;7.194;2022-09-01T10:30:36;24.30;99.90
1391;DHT22;690;51.454;7.194;2022-09-01T10:33:07;24.30;99.90
1391;DHT22;690;51.454;7.194;2022-09-01T10:35:37;24.30;99.90
1391;DHT22;690;51.454;7.194;2022-09-01T10:38:08;24.40;99.90
1391;DHT22;690;51.454;7.194;2022-09-01T10:40:37;24.40;99.90
1391;DHT22;690;51.454;7.194;2022-09-01T10:43:28;24.40;99.90
1391;DHT22;690;51.454;7.194;2022-09-01T10:46:06;24.50;99.90
1391;DHT22;690;51.454;7.194;2022-09-01T10:48:34;24.50;99.90
1391;DHT22;690;51.454;7.194;2022-09-01T10:51:39;24.60;99.90
1391;DHT22;690;51.454;7.194;2022-09-01T10:54:07;24.60;99.90
1391;DHT22;690;51.454;7.194;2022-09-01T10:56:40;24.60;99.90
1391;DHT22;690;51.454;7.194;2022-09-01T10:59:09;24.70;99.90
1391;DHT22;690;51.454;7.194;2022-09-01T11:02:12;24.70;99.90
1391;DHT22;690;51.454;7.194;2022-09-01T11:05:14;24.90;99.90
1391;DHT22;690;51.454;7.194;2022-09-01T11:07:42;25.00;99.90
1391;DHT22;690;51.454;7.194;2022-09-01T11:10:28;25.00;99.90
1391;DHT22;690;51.454;7.194;2022-09-01T11:13:32;25.10;99.90
1391;DHT22;690;51.454;7.194;2022-09-01T11:16:27;25.20;99.90
1391;DHT22;690;51.454;7.194;2022-09-01T11:19:26;25.30;99.90
1391;DHT22;690;51.454;7.194;2022-09-01T11:22:13;25.40;99.90
1391;DHT22;690;51.454;7.194;2022-09-01T11:24:49;25.40;99.90
1391;DHT22;690;51.454;7.194;2022-09-01T11:28:00;25.40;99.90
1391;DHT22;690;51.454;7.194;2022-09-01T11:30:35;25.50;99.90
1391;DHT22;690;51.454;7.194;2022-09-01T11:33:11;25.50;99.90
1391;DHT22;690;51.454;7.194;2022-09-01T11:35:44;25.50;99.90
1391;DHT22;690;51.454;7.194;2022-09-01T11:38:14;25.50;99.90
1391;DHT22;690;51.454;7.194;2022-09-01T11:40:41;25.60;99.90
1391;DHT22;690;51.454;7.194;2022-09-01T11:43:12;25.70;99.90
1391;DHT22;690;51.454;7.194;2022-09-01T11:45:49;25.90;99.90
1391;DHT22;690;51.454;7.194;2022-09-01T11:48:19;25.90;99.90
1391;DHT22;690;51.454;7.194;2022-09-01T11:50:56;25.90;99.90
1391;DHT22;690;51.454;7.194;2022-09-01T11:53:25;25.90;99.90
1391;DHT22;690;51.454;7.194;2022-09-01T11:55:54;25.80;99.90
1391;DHT22;690;51.454;7.194;2022-09-01T11:58:30;25.80;99.90
1391;DHT22;690;51.454;7.194;2022-09-01T12:01:12;25.90;99.90
1391;DHT22;690;51.454;7.194;2022-09-01T12:03:40;26.00;99.90
1391;DHT22;690;51.454;7.194;2022-09-01T12:06:10;26.10;99.90
1391;DHT22;690;51.454;7.194;2022-09-01T12:08:41;26.20;99.90
1391;DHT22;690;51.454;7.194;2022-09-01T12:11:10;26.20;99.90
1391;DHT22;690;51.454;7.194;2022-09-01T12:13:38;26.20;99.90
1391;DHT22;690;51.454;7.194;2022-09-01T12:16:07;26.30;99.90
1391;DHT22;690;51.454;7.194;2022-09-01T12:18:42;26.30;99.90
1391;DHT22;690;51.454;7.194;2022-09-01T12:21:20;26.30;99.90
1391;DHT22;690;51.454;7.194;2022-09-01T12:23:47;26.40;99.90
1391;DHT22;690;51.454;7.194;2022-09-01T12:26:17;26.40;99.90
1391;DHT22;690;51.454;7.194;2022-09-01T12:28:45;26.40;99.90
1391;DHT22;690;51.454;7.194;2022-09-01T12:31:16;26.40;99.90
1391;DHT22;690;51.454;7.194;2022-09-01T12:33:44;26.50;99.90
1391;DHT22;690;51.454;7.194;2022-09-01T12:36:32;26.50;99.90
1391;DHT22;690;51.454;7.194;2022-09-01T12:39:18;26.60;99.90
1391;DHT22;690;51.454;7.194;2022-09-01T12:41:49;26.60;99.90
1391;DHT22;690;51.454;7.194;2022-09-01T12:44:28;26.50;99.90
1391;DHT22;690;51.454;7.194;2022-09-01T12:46:56;26.60;99.90
1391;DHT22;690;51.454;7.194;2022-09-01T12:49:25;26.60;99.90
1391;DHT22;690;51.454;7.194;2022-09-01T12:52:11;26.60;99.90
1391;DHT22;690;51.454;7.194;2022-09-01T12:54:39;26.60;99.90
1391;DHT22;690;51.454;7.194;2022-09-01T12:57:06;26.70;99.90
1391;DHT22;690;51.454;7.194;2022-09-01T12:59:34;26.60;99.90
1391;DHT22;690;51.454;7.194;2022-09-01T13:02:25;26.50;99.90
1391;DHT22;690;51.454;7.194;2022-09-01T13:04:52;26.50;99.90
1391;DHT22;690;51.454;7.194;2022-09-01T13:07:20;26.60;99.90
1391;DHT22;690;51.454;7.194;2022-09-01T13:09:47;26.70;99.90
1391;DHT22;690;51.454;7.194;2022-09-01T13:12:18;26.80;99.90
1391;DHT22;690;51.454;7.194;2022-09-01T13:14:45;26.90;99.90
1391;DHT22;690;51.454;7.194;2022-09-01T13:17:12;26.90;99.90
1391;DHT22;690;51.454;7.194;2022-09-01T13:19:39;27.00;99.90
1391;DHT22;690;51.454;7.194;2022-09-01T13:22:07;27.00;99.90
1391;DHT22;690;51.454;7.194;2022-09-01T13:24:35;27.10;99.90
1391;DHT22;690;51.454;7.194;2022-09-01T13:27:02;27.20;99.90
1391;DHT22;690;51.454;7.194;2022-09-01T13:29:29;27.30;99.90
1391;DHT22;690;51.454;7.194;2022-09-01T13:31:56;27.40;99.90
1391;DHT22;690;51.454;7.194;2022-09-01T13:34:23;27.40;99.90
1391;DHT22;690;51.454;7.194;2022-09-01T13:36:50;27.30;99.90
1391;DHT22;690;51.454;7.194;2022-09-01T13:39:17;27.40;99.90
1391;DHT22;690;51.454;7.194;2022-09-01T13:41:45;27.30;99.90
1391;DHT22;690;51.454;7.194;2022-09-01T13:44:12;27.40;99.90
1391;DHT22;690;51.454;7.194;2022-09-01T13:46:40;27.50;99.90
1391;DHT22;690;51.454;7.194;2022-09-01T13:49:07;27.50;99.90
1391;DHT22;690;51.454;7.194;2022-09-01T13:51:34;27.50;99.90
1391;DHT22;690;51.454;7.194;2022-09-01T13:54:02;27.50;99.90
1391;DHT22;690;51.454;7.194;2022-09-01T13:56:29;27.60;99.90
1391;DHT22;690;51.454;7.194;2022-09-01T13:58:57;27.70;99.90
1391;DHT22;690;51.454;7.194;2022-09-01T14:01:25;27.70;99.90
1391;DHT22;690;51.454;7.194;2022-09-01T14:03:52;27.80;99.90
1391;DHT22;690;51.454;7.194;2022-09-01T14:06:20;27.90;99.90
1391;DHT22;690;51.454;7.194;2022-09-01T14:08:47;27.90;99.90
1391;DHT22;690;51.454;7.194;2022-09-01T14:11:15;28.00;99.90
1391;DHT22;690;51.454;7.194;2022-09-01T14:13:42;28.10;99.90
1391;DHT22;690;51.454;7.194;2022-09-01T14:16:12;28.00;99.90
1391;DHT22;690;51.454;7.194;2022-09-01T14:18:39;28.00;99.90
1391;DHT22;690;51.454;7.194;2022-09-01T14:21:10;27.90;99.90
1391;DHT22;690;51.454;7.194;2022-09-01T14:23:38;27.90;99.90
1391;DHT22;690;51.454;7.194;2022-09-01T14:26:08;27.80;99.90
1391;DHT22;690;51.454;7.194;2022-09-01T14:28:36;27.80;99.90
1391;DHT22;690;51.454;7.194;2022-09-01T14:31:07;27.90;99.90
1391;DHT22;690;51.454;7.194;2022-09-01T14:33:37;27.90;99.90
1391;DHT22;690;51.454;7.194;2022-09-01T14:36:05;27.90;99.90
1391;DHT22;690;51.454;7.194;2022-09-01T14:38:33;28.00;99.90
1391;DHT22;690;51.454;7.194;2022-09-01T14:41:00;28.00;99.90
1391;DHT22;690;51.454;7.194;2022-09-01T14:43:28;28.10;99.90
1391;DHT22;690;51.454;7.194;2022-09-01T14:46:05;28.10;99.90
1391;DHT22;690;51.454;7.194;2022-09-01T14:48:37;28.10;99.90
1391;DHT22;690;51.454;7.194;2022-09-01T14:51:04;28.10;99.90
1391;DHT22;690;51.454;7.194;2022-09-01T14:53:31;28.20;99.90
1391;DHT22;690;51.454;7.194;2022-09-01T14:55:59;28.20;99.90
1391;DHT22;690;51.454;7.194;2022-09-01T14:58:27;28.20;99.90
1391;DHT22;690;51.454;7.194;2022-09-01T15:00:55;28.20;99.90
1391;DHT22;690;51.454;7.194;2022-09-01T15:03:24;28.30;99.90
1391;DHT22;690;51.454;7.194;2022-09-01T15:05:53;28.40;99.90
1391;DHT22;690;51.454;7.194;2022-09-01T15:08:20;28.30;99.90
1391;DHT22;690;51.454;7.194;2022-09-01T15:10:48;28.30;99.90
1391;DHT22;690;51.454;7.194;2022-09-01T15:13:15;28.40;99.90
1391;DHT22;690;51.454;7.194;2022-09-01T15:15:42;28.40;99.90
1391;DHT22;690;51.454;7.194;2022-09-01T15:18:09;28.40;99.90
1391;DHT22;690;51.454;7.194;2022-09-01T15:20:39;28.40;99.90
1391;DHT22;690;51.454;7.194;2022-09-01T15:23:16;28.40;99.90
1391;DHT22;690;51.454;7.194;2022-09-01T15:25:44;28.50;99.90
1391;DHT22;690;51.454;7.194;2022-09-01T15:28:11;28.50;99.90
1391;DHT22;690;51.454;7.194;2022-09-01T15:30:39;28.50;99.90
1391;DHT22;690;51.454;7.194;2022-09-01T15:33:07;28.50;99.90
1391;DHT22;690;51.454;7.194;2022-09-01T15:35:35;28.50;99.90
1391;DHT22;690;51.454;7.194;2022-09-01T15:38:02;28.50;99.90
1391;DHT22;690;51.454;7.194;2022-09-01T15:40:31;28.50;99.90
1391;DHT22;690;51.454;7.194;2022-09-01T15:42:59;28.50;99.90
1391;DHT22;690;51.454;7.194;2022-09-01T15:45:26;28.50;99.90
1391;DHT22;690;51.454;7.194;2022-09-01T15:47:54;28.50;99.90
1391;DHT22;690;51.454;7.194;2022-09-01T15:50:23;28.60;99.90
1391;DHT22;690;51.454;7.194;2022-09-01T15:52:52;28.70;99.90
1391;DHT22;690;51.454;7.194;2022-09-01T15:55:22;28.70;99.90
1391;DHT22;690;51.454;7.194;2022-09-01T15:57:50;28.70;99.90
1391;DHT22;690;51.454;7.194;2022-09-01T16:00:21;28.60;99.90
1391;DHT22;690;51.454;7.194;2022-09-01T16:02:48;28.60;99.90
1391;DHT22;690;51.454;7.194;2022-09-01T16:05:15;28.60;99.90
1391;DHT22;690;51.454;7.194;2022-09-01T16:07:43;28.70;99.90
1391;DHT22;690;51.454;7.194;2022-09-01T16:10:10;28.70;99.90
1391;DHT22;690;51.454;7.194;2022-09-01T16:12:39;28.80;99.90
1391;DHT22;690;51.454;7.194;2022-09-01T16:15:11;28.80;99.90
1391;DHT22;690;51.454;7.194;2022-09-01T16:20:35;29.00;99.90
1391;DHT22;690;51.454;7.194;2022-09-01T16:23:12;29.10;99.90
1391;DHT22;690;51.454;7.194;2022-09-01T16:25:40;29.50;99.90
1391;DHT22;690;51.454;7.194;2022-09-01T16:28:11;30.10;99.90
1391;DHT22;690;51.454;7.194;2022-09-01T16:30:46;30.80;99.90
1391;DHT22;690;51.454;7.194;2022-09-01T16:33:15;31.50;99.90
1391;DHT22;690;51.454;7.194;2022-09-01T16:35:53;32.10;99.90
1391;DHT22;690;51.454;7.194;2022-09-01T16:38:33;32.50;99.90
1391;DHT22;690;51.454;7.194;2022-09-01T16:41:07;32.90;99.90
1391;DHT22;690;51.454;7.194;2022-09-01T16:43:42;33.10;99.90